createdAt,value
2023-09-11T00:00:13.266Z,96.97
2023-09-11T00:02:39.954Z,96.24
2023-09-11T00:05:07.000Z,96.17
2023-09-11T00:07:33.776Z,96.48
2023-09-11T00:10:00.498Z,97.16
2023-09-11T00:12:27.184Z,97.20
2023-09-11T00:14:53.889Z,96.36
2023-09-11T00:17:20.881Z,95.75
2023-09-11T00:19:47.718Z,95.39
2023-09-11T00:22:14.448Z,95.45
2023-09-11T00:24:41.365Z,96.00
2023-09-11T00:27:07.986Z,96.23
2023-09-11T00:29:34.661Z,96.66
2023-09-11T00:32:02.070Z,97.52
2023-09-11T00:34:30.925Z,97.45
2023-09-11T00:36:58.511Z,96.93
2023-09-11T00:39:25.434Z,96.82
2023-09-11T00:41:52.324Z,97.53
2023-09-11T00:44:19.397Z,97.27
2023-09-11T00:46:46.597Z,96.55
2023-09-11T00:49:13.479Z,96.34
2023-09-11T00:51:41.025Z,96.03
2023-09-11T00:54:09.494Z,96.00
2023-09-11T00:56:36.343Z,95.86
2023-09-11T00:59:04.749Z,96.11
2023-09-11T01:01:32.835Z,96.18
2023-09-11T01:04:00.073Z,95.75
2023-09-11T01:06:26.875Z,96.09
2023-09-11T01:08:56.395Z,95.96
2023-09-11T01:11:23.976Z,95.94
2023-09-11T01:13:51.092Z,95.78
2023-09-11T01:16:36.404Z,95.54
2023-09-11T01:19:24.472Z,95.84
2023-09-11T01:22:23.255Z,96.39
2023-09-11T01:25:03.995Z,96.83
2023-09-11T01:27:33.538Z,96.20
2023-09-11T01:30:01.472Z,96.70
2023-09-11T01:32:29.786Z,96.77
2023-09-11T01:34:56.819Z,96.40
2023-09-11T01:37:23.557Z,95.75
2023-09-11T01:39:50.288Z,95.89
2023-09-11T01:42:23.178Z,96.33
2023-09-11T01:44:51.624Z,96.56
2023-09-11T01:47:21.877Z,96.24
2023-09-11T01:49:50.315Z,95.81
2023-09-11T01:52:18.463Z,95.49
2023-09-11T01:54:45.408Z,95.73
2023-09-11T01:57:12.892Z,96.32
2023-09-11T01:59:39.604Z,95.90
2023-09-11T02:02:07.335Z,95.68
2023-09-11T02:04:34.354Z,95.49
2023-09-11T02:07:01.097Z,95.48
2023-09-11T02:09:27.749Z,95.62
2023-09-11T02:11:54.656Z,95.71
2023-09-11T02:14:21.526Z,95.56
2023-09-11T02:16:48.282Z,95.45
2023-09-11T02:19:15.056Z,95.89
2023-09-11T02:21:41.857Z,95.84
2023-09-11T02:24:08.543Z,95.54
2023-09-11T02:26:35.455Z,95.39
2023-09-11T02:29:02.254Z,95.29
2023-09-11T02:31:29.183Z,96.43
2023-09-11T02:33:56.114Z,96.82
2023-09-11T02:36:23.043Z,96.82
2023-09-11T02:38:49.772Z,96.78
2023-09-11T02:41:17.472Z,96.85
2023-09-11T02:43:44.196Z,96.22
2023-09-11T02:46:11.612Z,95.98
2023-09-11T02:48:46.807Z,95.96
2023-09-11T02:51:14.169Z,95.91
2023-09-11T02:53:40.957Z,95.56
2023-09-11T02:56:08.230Z,95.78
2023-09-11T02:58:34.980Z,95.79
2023-09-11T03:01:04.030Z,96.40
2023-09-11T03:03:32.107Z,95.82
2023-09-11T03:06:01.341Z,95.78
2023-09-11T03:08:28.531Z,95.78
2023-09-11T03:11:08.514Z,96.48
2023-09-11T03:13:37.886Z,97.01
2023-09-11T03:16:09.522Z,96.61
2023-09-11T03:18:37.194Z,96.08
2023-09-11T03:21:04.744Z,95.75
2023-09-11T03:23:32.094Z,95.77
2023-09-11T03:25:58.852Z,95.73
2023-09-11T03:28:28.476Z,95.63
2023-09-11T03:30:56.099Z,95.76
2023-09-11T03:33:23.563Z,95.76
2023-09-11T03:35:50.618Z,95.78
2023-09-11T03:38:17.756Z,95.42
2023-09-11T03:40:46.951Z,95.49
2023-09-11T03:43:14.109Z,95.65
2023-09-11T03:45:41.219Z,95.83
2023-09-11T03:48:08.040Z,95.89
2023-09-11T03:50:35.354Z,95.89
2023-09-11T03:53:02.195Z,96.65
2023-09-11T03:55:29.537Z,96.54
2023-09-11T03:57:56.439Z,95.97
2023-09-11T04:00:23.207Z,95.87
2023-09-11T04:02:50.061Z,96.51
2023-09-11T04:05:16.926Z,96.97
2023-09-11T04:07:45.054Z,96.98
2023-09-11T04:10:12.044Z,97.91
2023-09-11T04:12:38.719Z,97.10
2023-09-11T04:15:06.037Z,96.78
2023-09-11T04:17:32.868Z,96.91
2023-09-11T04:20:00.701Z,96.46
2023-09-11T04:22:27.577Z,96.04
2023-09-11T04:24:54.276Z,95.94
2023-09-11T04:27:21.343Z,96.38
2023-09-11T04:29:48.321Z,96.37
2023-09-11T04:32:15.358Z,96.25
2023-09-11T04:34:41.967Z,95.96
2023-09-11T04:37:08.963Z,95.81
2023-09-11T04:39:35.965Z,95.81
2023-09-11T04:42:02.875Z,95.93
2023-09-11T04:44:29.625Z,96.66
2023-09-11T04:46:56.330Z,96.80
2023-09-11T04:49:23.286Z,96.84
2023-09-11T04:51:50.616Z,97.05
2023-09-11T04:54:17.334Z,96.55
2023-09-11T04:56:44.144Z,96.08
2023-09-11T04:59:11.336Z,95.74
2023-09-11T05:01:38.232Z,95.81
2023-09-11T05:04:05.649Z,95.79
2023-09-11T05:06:32.528Z,95.66
2023-09-11T05:11:30.088Z,95.57
2023-09-11T05:13:57.003Z,96.49
2023-09-11T05:16:23.752Z,96.98
2023-09-11T05:18:50.853Z,96.87
2023-09-11T05:21:17.752Z,97.61
2023-09-11T05:23:44.420Z,96.62
2023-09-11T05:26:11.256Z,96.13
2023-09-11T05:28:38.700Z,95.70
2023-09-11T05:31:06.583Z,95.83
2023-09-11T05:33:33.443Z,95.47
2023-09-11T05:36:00.249Z,95.92
2023-09-11T05:38:27.061Z,95.96
2023-09-11T05:40:53.801Z,96.10
2023-09-11T05:43:20.951Z,95.89
2023-09-11T05:45:47.759Z,95.84
2023-09-11T05:48:14.489Z,95.16
2023-09-11T05:50:41.237Z,94.74
2023-09-11T05:53:08.276Z,94.88
2023-09-11T05:55:35.253Z,94.56
2023-09-11T05:58:02.231Z,94.15
2023-09-11T06:00:29.106Z,93.78
2023-09-11T06:02:55.995Z,93.21
2023-09-11T06:05:23.960Z,92.61
2023-09-11T06:07:50.628Z,92.69
2023-09-11T06:10:17.293Z,92.18
2023-09-11T06:12:44.174Z,92.17
2023-09-11T06:15:11.132Z,91.79
2023-09-11T06:17:44.273Z,91.70
2023-09-11T06:20:12.317Z,91.71
2023-09-11T06:22:39.172Z,91.20
2023-09-11T06:25:06.423Z,90.45
2023-09-11T06:27:35.223Z,89.63
2023-09-11T06:30:07.599Z,89.61
2023-09-11T06:32:35.354Z,88.22
2023-09-11T06:35:03.022Z,88.56
2023-09-11T06:37:29.679Z,89.07
2023-09-11T06:39:56.320Z,88.86
2023-09-11T06:42:24.558Z,88.10
2023-09-11T06:44:53.974Z,87.40
2023-09-11T06:47:21.149Z,86.36
2023-09-11T06:49:48.187Z,87.19
2023-09-11T06:52:17.077Z,86.07
2023-09-11T06:54:44.135Z,84.95
2023-09-11T06:57:10.937Z,84.38
2023-09-11T06:59:37.834Z,84.55
2023-09-11T07:02:07.333Z,83.40
2023-09-11T07:04:34.123Z,82.73
2023-09-11T07:07:00.888Z,83.77
2023-09-11T07:09:27.535Z,82.54
2023-09-11T07:11:54.331Z,82.13
2023-09-11T07:14:22.330Z,80.00
2023-09-11T07:16:49.431Z,80.70
2023-09-11T07:19:16.453Z,80.10
2023-09-11T07:21:45.405Z,80.76
2023-09-11T07:24:13.162Z,79.36
2023-09-11T07:27:07.567Z,78.77
2023-09-11T07:33:29.620Z,78.31
2023-09-11T07:36:05.889Z,77.28
2023-09-11T07:38:34.193Z,76.34
2023-09-11T07:41:00.834Z,75.53
2023-09-11T07:43:27.392Z,77.02
2023-09-11T07:45:54.042Z,76.14
2023-09-11T07:48:20.755Z,76.17
2023-09-11T07:50:47.956Z,74.69
2023-09-11T07:53:14.530Z,74.87
2023-09-11T07:55:41.371Z,74.26
2023-09-11T07:58:10.702Z,74.14
2023-09-11T08:00:37.321Z,73.95
2023-09-11T08:03:04.514Z,74.16
2023-09-11T08:05:31.285Z,74.14
2023-09-11T08:08:02.530Z,73.54
2023-09-11T08:10:29.929Z,70.82
2023-09-11T08:12:57.139Z,71.91
2023-09-11T08:15:23.812Z,71.37
2023-09-11T08:17:50.459Z,70.36
2023-09-11T08:20:17.162Z,71.44
2023-09-11T08:22:43.744Z,69.99
2023-09-11T08:25:11.992Z,69.03
2023-09-11T08:27:38.649Z,69.40
2023-09-11T08:30:06.707Z,67.79
2023-09-11T08:32:36.286Z,68.23
2023-09-11T08:35:03.840Z,66.39
2023-09-11T08:37:31.549Z,66.94
2023-09-11T08:39:58.123Z,65.98
2023-09-11T08:42:24.838Z,67.33
2023-09-11T08:44:51.782Z,66.88
2023-09-11T08:47:21.854Z,67.51
2023-09-11T08:49:55.488Z,65.60
2023-09-11T08:52:23.325Z,64.82
2023-09-11T08:54:53.714Z,63.58
2023-09-11T08:57:24.557Z,62.11
2023-09-11T08:59:55.099Z,62.97
2023-09-11T09:02:22.736Z,63.00
2023-09-11T09:04:50.522Z,61.50
2023-09-11T09:07:18.441Z,63.04
2023-09-11T09:09:46.116Z,62.20
2023-09-11T09:12:12.725Z,63.12
2023-09-11T09:14:39.784Z,62.06
2023-09-11T09:17:07.979Z,62.11
2023-09-11T09:19:34.661Z,61.23
2023-09-11T09:22:07.247Z,62.23
2023-09-11T09:24:38.244Z,62.08
2023-09-11T09:27:06.816Z,60.75
2023-09-11T09:29:38.607Z,62.14
2023-09-11T09:32:08.544Z,60.94
2023-09-11T09:34:49.985Z,60.59
2023-09-11T09:37:21.081Z,62.23
2023-09-11T09:39:51.748Z,60.49
2023-09-11T09:42:19.075Z,61.79
2023-09-11T09:44:49.988Z,60.30
2023-09-11T09:47:21.181Z,59.52
2023-09-11T09:50:05.387Z,56.34
2023-09-11T09:52:34.112Z,55.51
2023-09-11T09:55:09.543Z,56.02
2023-09-11T09:57:36.150Z,57.27
2023-09-11T10:00:06.620Z,57.22
2023-09-11T10:02:35.396Z,56.75
2023-09-11T10:05:10.158Z,54.08
2023-09-11T10:07:40.028Z,52.54
2023-09-11T10:10:31.374Z,53.75
2023-09-11T10:13:09.094Z,52.65
2023-09-11T10:15:37.677Z,52.13
2023-09-11T10:18:05.572Z,53.65
2023-09-11T10:20:33.299Z,53.96
2023-09-11T10:23:02.221Z,52.40
2023-09-11T10:25:30.368Z,53.69
2023-09-11T10:28:10.618Z,54.85
2023-09-11T10:30:53.927Z,55.99
2023-09-11T10:33:30.941Z,52.27
2023-09-11T10:36:04.013Z,53.47
2023-09-11T10:38:31.848Z,52.10
2023-09-11T10:41:01.606Z,51.72
2023-09-11T10:43:28.837Z,51.39
2023-09-11T10:45:55.587Z,51.40
2023-09-11T10:48:29.810Z,51.55
2023-09-11T10:50:59.140Z,50.65
2023-09-11T10:53:30.062Z,51.06
2023-09-11T10:55:58.453Z,51.59
2023-09-11T10:58:27.078Z,52.34
2023-09-11T11:00:55.118Z,49.76
2023-09-11T11:03:25.545Z,51.30
2023-09-11T11:05:56.524Z,50.28
2023-09-11T11:08:23.277Z,49.95
2023-09-11T11:10:57.132Z,48.66
2023-09-11T11:13:24.379Z,48.61
2023-09-11T11:16:23.792Z,48.62
2023-09-11T11:18:54.347Z,47.11
2023-09-11T11:21:21.071Z,47.24
2023-09-11T11:23:57.264Z,48.62
2023-09-11T11:26:27.956Z,48.54
2023-09-11T11:28:54.708Z,47.62
2023-09-11T11:31:23.036Z,46.84
2023-09-11T11:33:51.646Z,46.73
2023-09-11T11:36:19.905Z,46.81
2023-09-11T11:38:47.056Z,48.49
2023-09-11T11:41:14.132Z,45.80
2023-09-11T11:43:42.536Z,50.76
2023-09-11T11:46:10.959Z,49.19
2023-09-11T11:48:38.954Z,51.49
2023-09-11T11:51:06.673Z,50.18
2023-09-11T11:53:34.035Z,49.00
2023-09-11T11:56:04.410Z,47.89
2023-09-11T11:58:33.109Z,47.59
2023-09-11T12:01:04.484Z,51.11
2023-09-11T12:03:46.779Z,50.96
2023-09-11T12:06:14.017Z,52.15
2023-09-11T12:08:41.889Z,52.11
2023-09-11T12:11:09.664Z,50.75
2023-09-11T12:13:49.036Z,52.31
2023-09-11T12:16:17.113Z,50.81
2023-09-11T12:18:44.511Z,48.27
2023-09-11T12:21:11.674Z,48.15
2023-09-11T12:23:38.632Z,49.96
2023-09-11T12:26:05.917Z,54.79
2023-09-11T12:28:33.867Z,53.43
2023-09-11T12:31:01.049Z,51.87
2023-09-11T12:33:29.506Z,51.19
2023-09-11T12:35:56.882Z,53.87
2023-09-11T12:38:24.740Z,52.00
2023-09-11T12:40:54.765Z,51.49
2023-09-11T12:43:23.343Z,50.65
2023-09-11T12:45:50.160Z,51.52
2023-09-11T12:48:18.851Z,51.61
2023-09-11T12:50:45.947Z,52.53
2023-09-11T12:53:12.743Z,51.55
2023-09-11T12:55:39.393Z,54.93
2023-09-11T12:58:06.065Z,52.17
2023-09-11T13:00:34.644Z,56.36
2023-09-11T13:03:03.042Z,56.75
2023-09-11T13:05:30.745Z,54.56
2023-09-11T13:07:59.489Z,54.52
2023-09-11T13:10:26.875Z,53.13
2023-09-11T13:12:53.942Z,53.11
2023-09-11T13:15:21.487Z,51.91
2023-09-11T13:17:48.604Z,53.08
2023-09-11T13:20:15.779Z,48.30
2023-09-11T13:22:43.463Z,49.91
2023-09-11T13:25:13.187Z,53.87
2023-09-11T13:27:42.940Z,48.03
2023-09-11T13:30:10.202Z,50.82
2023-09-11T13:32:38.770Z,54.76
2023-09-11T13:35:07.208Z,57.75
2023-09-11T13:37:34.469Z,57.33
2023-09-11T13:40:01.250Z,56.97
2023-09-11T13:42:27.929Z,58.99
2023-09-11T13:44:57.035Z,60.08
2023-09-11T13:47:24.445Z,61.44
2023-09-11T13:49:51.608Z,61.86
2023-09-11T13:52:20.082Z,61.90
2023-09-11T13:54:47.865Z,61.50
2023-09-11T13:57:15.074Z,62.03
2023-09-11T13:59:41.844Z,62.96
2023-09-11T14:02:08.639Z,63.98
2023-09-11T14:04:35.762Z,64.99
2023-09-11T14:07:02.899Z,65.73
2023-09-11T14:09:29.599Z,65.83
2023-09-11T16:31:22.798Z,72.73
2023-09-11T16:46:46.730Z,74.08
2023-09-11T16:49:13.558Z,74.62
2023-09-11T16:51:40.670Z,74.89
2023-09-11T16:57:13.453Z,76.01
2023-09-11T16:59:40.433Z,76.81
2023-09-11T17:02:07.766Z,77.25
2023-09-11T17:04:35.745Z,76.96
2023-09-11T17:10:52.259Z,77.83
2023-09-11T17:13:21.324Z,78.13
2023-09-11T17:15:48.369Z,77.81
2023-09-11T17:18:15.313Z,77.40
2023-09-11T17:20:43.115Z,77.69
2023-09-11T17:23:11.925Z,77.35
2023-09-11T17:25:41.933Z,78.04
2023-09-11T17:28:13.261Z,78.75
2023-09-11T17:36:52.306Z,79.21
2023-09-11T17:39:50.616Z,79.37
2023-09-11T17:42:32.721Z,79.67
2023-09-11T17:45:30.646Z,79.33
2023-09-11T17:48:26.431Z,79.80
2023-09-11T17:51:04.103Z,79.94
2023-09-11T17:53:50.973Z,80.53
2023-09-11T17:56:39.054Z,80.69
2023-09-11T17:59:09.863Z,80.88
2023-09-11T18:01:36.951Z,80.93
2023-09-11T18:04:04.140Z,81.14
2023-09-11T18:06:32.330Z,81.48
2023-09-11T18:09:00.253Z,81.57
2023-09-11T18:11:27.327Z,81.53
2023-09-11T18:13:55.202Z,81.56
2023-09-11T18:16:22.280Z,81.75
2023-09-11T18:18:50.072Z,82.31
2023-09-11T18:30:10.899Z,82.58
2023-09-11T18:32:38.158Z,82.81
2023-09-11T18:35:05.809Z,83.03
2023-09-11T18:37:33.637Z,83.26
2023-09-11T18:40:00.851Z,83.31
2023-09-11T18:42:29.339Z,83.39
2023-09-11T18:44:59.678Z,83.24
2023-09-11T18:47:36.361Z,84.28
2023-09-11T18:50:05.713Z,84.99
2023-09-11T18:52:35.501Z,85.29
2023-09-11T18:55:03.523Z,85.21
2023-09-11T18:57:31.221Z,85.46
2023-09-11T18:59:59.274Z,85.73
2023-09-11T19:02:26.679Z,85.40
2023-09-11T19:04:58.440Z,85.31
2023-09-11T19:07:25.738Z,85.59
2023-09-11T19:09:53.150Z,85.81
2023-09-11T19:12:20.138Z,85.54
2023-09-11T19:14:47.334Z,85.92
2023-09-11T19:17:14.691Z,86.46
2023-09-11T19:19:42.163Z,86.21
2023-09-11T19:22:11.262Z,86.63
2023-09-11T19:24:38.372Z,86.46
2023-09-11T19:27:05.534Z,86.42
2023-09-11T19:29:32.555Z,86.33
2023-09-11T19:31:59.533Z,86.96
2023-09-11T19:34:26.808Z,87.17
2023-09-11T19:36:53.956Z,86.97
2023-09-11T19:39:20.827Z,86.70
2023-09-11T19:41:47.762Z,86.93
2023-09-11T19:44:14.725Z,87.10
2023-09-11T19:46:41.818Z,87.02
2023-09-11T19:49:08.721Z,87.26
2023-09-11T19:51:37.535Z,87.52
2023-09-11T19:54:04.962Z,87.43
2023-09-11T19:56:34.040Z,87.67
2023-09-11T19:59:06.407Z,87.90
2023-09-11T20:01:35.333Z,87.38
2023-09-11T20:04:04.362Z,87.43
2023-09-11T20:06:33.689Z,87.49
2023-09-11T20:09:00.564Z,87.23
2023-09-11T20:11:28.239Z,87.39
2023-09-11T20:13:54.959Z,86.86
2023-09-11T20:16:21.874Z,86.58
2023-09-11T20:18:48.928Z,87.02
2023-09-11T20:21:15.832Z,87.25
2023-09-11T20:23:42.593Z,87.51
2023-09-11T20:26:09.690Z,87.28
2023-09-11T20:28:36.698Z,87.06
2023-09-11T20:31:12.317Z,87.40
2023-09-11T20:33:42.250Z,87.95
2023-09-11T20:36:17.185Z,88.15
2023-09-11T20:38:46.898Z,87.63
2023-09-11T20:41:13.650Z,87.84
2023-09-11T20:43:46.692Z,88.41
2023-09-11T20:46:14.182Z,88.60
2023-09-11T20:48:42.305Z,88.63
2023-09-11T20:51:11.788Z,88.91
2023-09-11T20:53:39.251Z,88.99
2023-09-11T20:56:07.553Z,89.37
2023-09-11T20:58:35.313Z,89.34
2023-09-11T21:01:06.720Z,89.00
2023-09-11T21:03:34.153Z,89.00
2023-09-11T21:06:01.831Z,88.87
2023-09-11T21:08:28.827Z,89.12
2023-09-11T21:10:56.041Z,89.34
2023-09-11T21:13:24.049Z,89.54
2023-09-11T21:15:51.970Z,89.61
2023-09-11T21:18:19.366Z,90.02
2023-09-11T21:20:46.518Z,89.47
2023-09-11T21:23:13.500Z,89.54
2023-09-11T21:25:40.551Z,89.89
2023-09-11T21:28:07.884Z,90.02
2023-09-11T21:30:35.368Z,90.02
2023-09-11T21:33:02.623Z,89.58
2023-09-11T21:35:30.062Z,90.14
2023-09-11T21:37:56.923Z,90.38
2023-09-11T21:40:23.886Z,90.74
2023-09-11T21:42:50.870Z,90.52
2023-09-11T21:45:17.886Z,90.28
2023-09-11T21:47:44.911Z,89.88
2023-09-11T21:50:14.814Z,89.70
2023-09-11T21:52:41.752Z,89.92
2023-09-11T21:55:08.892Z,89.74
2023-09-11T21:57:35.878Z,90.37
2023-09-11T22:00:07.539Z,91.27
2023-09-11T22:02:39.171Z,90.72
2023-09-11T22:05:07.073Z,90.39
2023-09-11T22:07:34.127Z,90.25
2023-09-11T22:10:05.240Z,90.30
2023-09-11T22:12:33.563Z,90.13
2023-09-11T22:15:01.113Z,90.29
2023-09-11T22:17:28.615Z,90.41
2023-09-11T22:19:55.398Z,90.20
2023-09-11T22:22:22.694Z,90.76
2023-09-11T22:24:49.676Z,91.88
2023-09-11T22:27:23.518Z,91.30
2023-09-11T22:29:51.005Z,91.45
2023-09-11T22:32:18.369Z,91.34
2023-09-11T22:34:45.293Z,91.10
2023-09-11T22:37:12.474Z,91.31
2023-09-11T22:39:39.513Z,91.60
2023-09-11T22:42:06.472Z,91.91
2023-09-11T22:44:34.150Z,91.46
2023-09-11T22:47:01.956Z,91.37
2023-09-11T22:49:29.573Z,91.19
2023-09-11T22:51:56.447Z,91.22
2023-09-11T22:54:24.081Z,91.33
2023-09-11T22:56:50.986Z,91.84
2023-09-11T22:59:18.055Z,91.75
2023-09-11T23:01:45.043Z,91.84
2023-09-11T23:04:12.305Z,92.00
2023-09-11T23:06:39.607Z,91.70
2023-09-11T23:09:07.189Z,92.51
2023-09-11T23:11:34.311Z,92.53
2023-09-11T23:14:01.415Z,93.15
2023-09-11T23:16:28.324Z,93.08
2023-09-11T23:18:55.326Z,92.44
2023-09-11T23:21:22.453Z,92.16
2023-09-11T23:23:51.233Z,91.98
2023-09-11T23:26:20.233Z,92.00
2023-09-11T23:28:47.471Z,92.29
2023-09-11T23:31:14.499Z,91.71
2023-09-11T23:33:43.753Z,91.76
2023-09-11T23:36:10.725Z,91.59
2023-09-11T23:38:39.100Z,91.68
2023-09-11T23:41:06.160Z,91.31
2023-09-11T23:43:34.745Z,91.54
2023-09-11T23:46:02.915Z,91.96
2023-09-11T23:48:30.808Z,92.33
2023-09-11T23:51:01.593Z,92.30
2023-09-11T23:53:29.824Z,93.61
2023-09-11T23:55:56.676Z,93.95
2023-09-11T23:58:23.995Z,94.19
